METAR & TAF

[Source: ADDS]
METAR
LIPL 200655Z 22002KT CAVOK 21/16 Q1026 RMK SKC VIS MIN 9999 WIND THR31 22003KT WIND THR13 23002KT BLU =
LIPL 200500Z 2006/2015 VRB03KT CAVOK
TAF
LIPL 200500Z 2006/2015 VRB03KT CAVOK =

Notice: Undefined index: sun in /web/htdocs/www.154gruppovirtuale.it/home/modules/mod_wx/tmpl/default.php on line 13
Badge

Bottom B

Bottom B 1 Lorem ipsum dolor sit amet, consectetur adipisicing elit, sed do eiusmod tempor incididunt ut labore et dolore.

Badge

Bottom B

Bottom B3 Lorem ipsum dolor sit amet, consectetur adipisicing elit, sed do eiusmod tempor incididunt ut labore et dolore.

Simulation Platform

 
Badge

Bottom B

Bottom B4 Lorem ipsum dolor sit amet, consectetur adipisicing elit, sed do eiusmod tempor incididunt ut labore et dolore.